sensor_id;sensor_type;location;lat;lon;timestamp;temperature;humidity
3488;DHT22;38546;48.170;11.724;2023-04-29T00:00:07;10.90;99.90
3488;DHT22;38546;48.170;11.724;2023-04-29T00:02:59;10.90;99.90
3488;DHT22;38546;48.170;11.724;2023-04-29T00:05:49;10.90;99.90
3488;DHT22;38546;48.170;11.724;2023-04-29T00:08:39;10.90;99.90
3488;DHT22;38546;48.170;11.724;2023-04-29T00:11:29;10.80;99.90
3488;DHT22;38546;48.170;11.724;2023-04-29T00:14:18;10.80;99.90
3488;DHT22;38546;48.170;11.724;2023-04-29T00:17:08;10.80;99.90
3488;DHT22;38546;48.170;11.724;2023-04-29T00:19:57;10.80;99.90
3488;DHT22;38546;48.170;11.724;2023-04-29T00:22:46;10.80;99.90
3488;DHT22;38546;48.170;11.724;2023-04-29T00:25:36;10.80;99.90
3488;DHT22;38546;48.170;11.724;2023-04-29T00:28:26;10.70;99.90
3488;DHT22;38546;48.170;11.724;2023-04-29T00:31:16;10.70;99.90
3488;DHT22;38546;48.170;11.724;2023-04-29T00:34:06;10.70;99.90
3488;DHT22;38546;48.170;11.724;2023-04-29T00:36:55;10.70;99.90
3488;DHT22;38546;48.170;11.724;2023-04-29T00:39:44;10.70;99.90
3488;DHT22;38546;48.170;11.724;2023-04-29T00:42:34;10.70;99.90
3488;DHT22;38546;48.170;11.724;2023-04-29T00:45:24;10.70;99.90
3488;DHT22;38546;48.170;11.724;2023-04-29T00:48:13;10.70;99.90
3488;DHT22;38546;48.170;11.724;2023-04-29T00:51:04;10.70;99.90
3488;DHT22;38546;48.170;11.724;2023-04-29T00:53:54;10.80;99.90
3488;DHT22;38546;48.170;11.724;2023-04-29T00:56:44;10.70;99.90
3488;DHT22;38546;48.170;11.724;2023-04-29T00:59:35;10.70;99.90
3488;DHT22;38546;48.170;11.724;2023-04-29T01:02:24;10.70;99.90
3488;DHT22;38546;48.170;11.724;2023-04-29T01:05:14;10.70;99.90
3488;DHT22;38546;48.170;11.724;2023-04-29T01:08:41;10.60;99.90
3488;DHT22;38546;48.170;11.724;2023-04-29T01:11:41;10.70;99.90
3488;DHT22;38546;48.170;11.724;2023-04-29T01:15:25;10.60;99.90
3488;DHT22;38546;48.170;11.724;2023-04-29T01:18:30;10.60;99.90
3488;DHT22;38546;48.170;11.724;2023-04-29T01:21:23;10.70;99.90
3488;DHT22;38546;48.170;11.724;2023-04-29T01:24:14;10.60;99.90
3488;DHT22;38546;48.170;11.724;2023-04-29T01:31:42;10.60;99.90
3488;DHT22;38546;48.170;11.724;2023-04-29T01:42:14;10.60;99.90
3488;DHT22;38546;48.170;11.724;2023-04-29T01:45:14;10.70;99.90
3488;DHT22;38546;48.170;11.724;2023-04-29T01:48:09;10.70;99.90
3488;DHT22;38546;48.170;11.724;2023-04-29T01:51:00;10.70;99.90
3488;DHT22;38546;48.170;11.724;2023-04-29T01:53:50;10.80;99.90
3488;DHT22;38546;48.170;11.724;2023-04-29T01:56:39;10.80;99.90
3488;DHT22;38546;48.170;11.724;2023-04-29T01:59:29;10.90;99.90
3488;DHT22;38546;48.170;11.724;2023-04-29T02:02:19;10.90;99.90
3488;DHT22;38546;48.170;11.724;2023-04-29T02:05:11;11.00;99.90
3488;DHT22;38546;48.170;11.724;2023-04-29T02:08:00;11.00;99.90
3488;DHT22;38546;48.170;11.724;2023-04-29T02:10:53;11.00;99.90
3488;DHT22;38546;48.170;11.724;2023-04-29T02:13:43;11.10;99.90
3488;DHT22;38546;48.170;11.724;2023-04-29T02:16:33;11.10;99.90
3488;DHT22;38546;48.170;11.724;2023-04-29T02:19:22;11.10;99.90
3488;DHT22;38546;48.170;11.724;2023-04-29T02:22:11;11.10;99.90
3488;DHT22;38546;48.170;11.724;2023-04-29T02:25:01;11.20;99.90
3488;DHT22;38546;48.170;11.724;2023-04-29T02:27:51;11.20;99.90
3488;DHT22;38546;48.170;11.724;2023-04-29T02:30:41;11.20;99.90
3488;DHT22;38546;48.170;11.724;2023-04-29T02:33:31;11.30;99.90
3488;DHT22;38546;48.170;11.724;2023-04-29T02:36:21;11.30;99.90
3488;DHT22;38546;48.170;11.724;2023-04-29T02:39:10;11.50;99.90
3488;DHT22;38546;48.170;11.724;2023-04-29T02:41:59;11.60;99.90
3488;DHT22;38546;48.170;11.724;2023-04-29T02:44:49;11.60;99.90
3488;DHT22;38546;48.170;11.724;2023-04-29T02:47:38;11.60;99.90
3488;DHT22;38546;48.170;11.724;2023-04-29T02:50:28;11.50;99.90
3488;DHT22;38546;48.170;11.724;2023-04-29T02:53:17;11.50;99.90
3488;DHT22;38546;48.170;11.724;2023-04-29T02:56:08;11.40;99.90
3488;DHT22;38546;48.170;11.724;2023-04-29T02:58:57;11.40;99.90
3488;DHT22;38546;48.170;11.724;2023-04-29T03:01:46;11.40;99.90
3488;DHT22;38546;48.170;11.724;2023-04-29T03:04:36;11.40;99.90
3488;DHT22;38546;48.170;11.724;2023-04-29T03:07:25;11.40;99.90
3488;DHT22;38546;48.170;11.724;2023-04-29T03:10:16;11.30;99.90
3488;DHT22;38546;48.170;11.724;2023-04-29T03:13:07;11.30;99.90
3488;DHT22;38546;48.170;11.724;2023-04-29T03:15:56;11.30;99.90
3488;DHT22;38546;48.170;11.724;2023-04-29T03:18:47;11.30;99.90
3488;DHT22;38546;48.170;11.724;2023-04-29T03:21:37;11.20;99.90
3488;DHT22;38546;48.170;11.724;2023-04-29T03:24:26;11.20;99.90
3488;DHT22;38546;48.170;11.724;2023-04-29T03:27:15;11.20;99.90
3488;DHT22;38546;48.170;11.724;2023-04-29T03:30:06;11.20;99.90
3488;DHT22;38546;48.170;11.724;2023-04-29T03:32:56;11.20;99.90
3488;DHT22;38546;48.170;11.724;2023-04-29T03:35:46;11.30;99.90
3488;DHT22;38546;48.170;11.724;2023-04-29T03:38:35;11.30;99.90
3488;DHT22;38546;48.170;11.724;2023-04-29T03:41:25;11.40;99.90
3488;DHT22;38546;48.170;11.724;2023-04-29T03:44:14;11.50;99.90
3488;DHT22;38546;48.170;11.724;2023-04-29T03:47:03;11.50;99.90
3488;DHT22;38546;48.170;11.724;2023-04-29T03:49:53;11.40;99.90
3488;DHT22;38546;48.170;11.724;2023-04-29T03:52:42;11.50;99.90
3488;DHT22;38546;48.170;11.724;2023-04-29T03:55:31;11.50;99.90
3488;DHT22;38546;48.170;11.724;2023-04-29T03:58:20;11.50;99.90
3488;DHT22;38546;48.170;11.724;2023-04-29T04:01:12;11.50;99.90
3488;DHT22;38546;48.170;11.724;2023-04-29T04:04:01;11.50;99.90
3488;DHT22;38546;48.170;11.724;2023-04-29T04:06:50;11.40;99.90
3488;DHT22;38546;48.170;11.724;2023-04-29T04:09:40;11.50;99.90
3488;DHT22;38546;48.170;11.724;2023-04-29T04:12:29;11.40;99.90
3488;DHT22;38546;48.170;11.724;2023-04-29T04:15:18;11.50;99.90
3488;DHT22;38546;48.170;11.724;2023-04-29T04:18:07;11.50;99.90
3488;DHT22;38546;48.170;11.724;2023-04-29T04:20:57;11.50;99.90
3488;DHT22;38546;48.170;11.724;2023-04-29T04:23:46;11.40;99.90
3488;DHT22;38546;48.170;11.724;2023-04-29T04:26:35;11.50;99.90
3488;DHT22;38546;48.170;11.724;2023-04-29T04:29:24;11.50;99.90
3488;DHT22;38546;48.170;11.724;2023-04-29T04:32:13;11.50;99.90
3488;DHT22;38546;48.170;11.724;2023-04-29T04:35:03;11.40;99.90
3488;DHT22;38546;48.170;11.724;2023-04-29T04:37:54;11.50;99.90
3488;DHT22;38546;48.170;11.724;2023-04-29T04:40:44;11.60;99.90
3488;DHT22;38546;48.170;11.724;2023-04-29T04:43:33;11.60;99.90
3488;DHT22;38546;48.170;11.724;2023-04-29T04:46:22;11.70;99.90
3488;DHT22;38546;48.170;11.724;2023-04-29T04:49:11;11.70;99.90
3488;DHT22;38546;48.170;11.724;2023-04-29T04:52:01;11.80;99.90
3488;DHT22;38546;48.170;11.724;2023-04-29T04:54:50;11.90;99.90
3488;DHT22;38546;48.170;11.724;2023-04-29T04:57:39;12.00;99.90
3488;DHT22;38546;48.170;11.724;2023-04-29T05:00:28;12.00;99.90
3488;DHT22;38546;48.170;11.724;2023-04-29T05:03:17;12.00;99.90
3488;DHT22;38546;48.170;11.724;2023-04-29T05:06:07;12.00;99.90
3488;DHT22;38546;48.170;11.724;2023-04-29T05:08:56;12.00;99.90
3488;DHT22;38546;48.170;11.724;2023-04-29T05:11:46;12.10;99.90
3488;DHT22;38546;48.170;11.724;2023-04-29T05:14:35;12.20;99.90
3488;DHT22;38546;48.170;11.724;2023-04-29T05:17:25;12.30;99.90
3488;DHT22;38546;48.170;11.724;2023-04-29T05:20:14;12.40;99.90
3488;DHT22;38546;48.170;11.724;2023-04-29T05:23:03;12.50;99.90
3488;DHT22;38546;48.170;11.724;2023-04-29T05:25:53;12.50;99.90
3488;DHT22;38546;48.170;11.724;2023-04-29T05:28:42;12.60;99.90
3488;DHT22;38546;48.170;11.724;2023-04-29T05:31:32;12.60;99.90
3488;DHT22;38546;48.170;11.724;2023-04-29T05:34:21;12.70;99.90
3488;DHT22;38546;48.170;11.724;2023-04-29T05:37:10;12.70;99.90
3488;DHT22;38546;48.170;11.724;2023-04-29T05:40:00;12.70;99.90
3488;DHT22;38546;48.170;11.724;2023-04-29T05:42:49;12.70;99.90
3488;DHT22;38546;48.170;11.724;2023-04-29T05:45:39;12.80;99.90
3488;DHT22;38546;48.170;11.724;2023-04-29T05:48:28;12.90;99.90
3488;DHT22;38546;48.170;11.724;2023-04-29T05:51:18;12.90;99.90
3488;DHT22;38546;48.170;11.724;2023-04-29T05:54:07;12.90;99.90
3488;DHT22;38546;48.170;11.724;2023-04-29T05:56:56;12.90;99.90
3488;DHT22;38546;48.170;11.724;2023-04-29T05:59:46;13.10;99.90
3488;DHT22;38546;48.170;11.724;2023-04-29T06:02:35;13.30;99.90
3488;DHT22;38546;48.170;11.724;2023-04-29T06:05:27;13.50;99.90
3488;DHT22;38546;48.170;11.724;2023-04-29T06:08:17;13.90;99.90
3488;DHT22;38546;48.170;11.724;2023-04-29T06:11:06;14.20;99.90
3488;DHT22;38546;48.170;11.724;2023-04-29T06:13:55;14.30;99.90
3488;DHT22;38546;48.170;11.724;2023-04-29T06:16:45;14.50;99.90
3488;DHT22;38546;48.170;11.724;2023-04-29T06:19:34;14.40;99.90
3488;DHT22;38546;48.170;11.724;2023-04-29T06:22:23;14.40;99.90
3488;DHT22;38546;48.170;11.724;2023-04-29T06:25:12;14.40;99.90
3488;DHT22;38546;48.170;11.724;2023-04-29T06:28:02;14.40;99.90
3488;DHT22;38546;48.170;11.724;2023-04-29T06:30:52;14.40;99.90
3488;DHT22;38546;48.170;11.724;2023-04-29T06:33:42;14.70;99.90
3488;DHT22;38546;48.170;11.724;2023-04-29T06:36:31;14.70;99.90
3488;DHT22;38546;48.170;11.724;2023-04-29T06:39:21;14.70;99.90
3488;DHT22;38546;48.170;11.724;2023-04-29T06:42:10;14.70;99.90
3488;DHT22;38546;48.170;11.724;2023-04-29T06:45:00;14.90;99.90
3488;DHT22;38546;48.170;11.724;2023-04-29T06:47:49;14.90;99.90
3488;DHT22;38546;48.170;11.724;2023-04-29T06:50:39;14.80;99.90
3488;DHT22;38546;48.170;11.724;2023-04-29T06:53:37;14.80;99.90
3488;DHT22;38546;48.170;11.724;2023-04-29T06:56:27;15.00;99.90
3488;DHT22;38546;48.170;11.724;2023-04-29T06:59:16;15.00;99.90
3488;DHT22;38546;48.170;11.724;2023-04-29T07:02:05;15.10;99.90
3488;DHT22;38546;48.170;11.724;2023-04-29T07:04:54;15.00;99.90
3488;DHT22;38546;48.170;11.724;2023-04-29T07:07:43;15.00;99.90
3488;DHT22;38546;48.170;11.724;2023-04-29T07:10:33;14.90;99.90
3488;DHT22;38546;48.170;11.724;2023-04-29T07:13:23;14.90;99.90
3488;DHT22;38546;48.170;11.724;2023-04-29T07:16:16;15.10;99.90
3488;DHT22;38546;48.170;11.724;2023-04-29T07:19:08;15.30;99.90
3488;DHT22;38546;48.170;11.724;2023-04-29T07:21:57;15.30;99.90
3488;DHT22;38546;48.170;11.724;2023-04-29T07:24:47;15.30;99.90
3488;DHT22;38546;48.170;11.724;2023-04-29T07:27:36;15.50;99.90
3488;DHT22;38546;48.170;11.724;2023-04-29T07:30:25;15.60;99.90
3488;DHT22;38546;48.170;11.724;2023-04-29T07:33:15;15.90;99.90
3488;DHT22;38546;48.170;11.724;2023-04-29T07:36:05;15.80;99.90
3488;DHT22;38546;48.170;11.724;2023-04-29T07:38:55;15.90;99.90
3488;DHT22;38546;48.170;11.724;2023-04-29T07:41:45;15.90;99.90
3488;DHT22;38546;48.170;11.724;2023-04-29T07:44:34;16.20;99.90
3488;DHT22;38546;48.170;11.724;2023-04-29T07:47:24;16.10;99.90
3488;DHT22;38546;48.170;11.724;2023-04-29T07:50:14;16.30;99.90
3488;DHT22;38546;48.170;11.724;2023-04-29T07:53:04;16.40;99.90
3488;DHT22;38546;48.170;11.724;2023-04-29T07:55:54;16.70;99.90
3488;DHT22;38546;48.170;11.724;2023-04-29T07:58:44;17.00;99.90
3488;DHT22;38546;48.170;11.724;2023-04-29T08:01:34;17.20;99.90
3488;DHT22;38546;48.170;11.724;2023-04-29T08:04:23;17.00;99.90
3488;DHT22;38546;48.170;11.724;2023-04-29T08:07:13;16.90;99.90
3488;DHT22;38546;48.170;11.724;2023-04-29T08:10:03;16.80;99.90
3488;DHT22;38546;48.170;11.724;2023-04-29T08:12:53;16.80;99.90
3488;DHT22;38546;48.170;11.724;2023-04-29T08:15:42;16.90;99.90
3488;DHT22;38546;48.170;11.724;2023-04-29T08:18:31;16.90;99.90
3488;DHT22;38546;48.170;11.724;2023-04-29T08:21:20;17.00;99.90
3488;DHT22;38546;48.170;11.724;2023-04-29T08:24:09;17.30;99.90
3488;DHT22;38546;48.170;11.724;2023-04-29T08:26:59;17.30;99.90
3488;DHT22;38546;48.170;11.724;2023-04-29T08:29:49;17.50;99.90
3488;DHT22;38546;48.170;11.724;2023-04-29T08:32:39;17.60;99.90
3488;DHT22;38546;48.170;11.724;2023-04-29T08:35:28;17.50;99.90
3488;DHT22;38546;48.170;11.724;2023-04-29T08:38:17;17.70;99.90
3488;DHT22;38546;48.170;11.724;2023-04-29T08:41:07;17.90;99.90
3488;DHT22;38546;48.170;11.724;2023-04-29T08:43:59;18.00;99.90
3488;DHT22;38546;48.170;11.724;2023-04-29T08:46:49;18.00;99.90
3488;DHT22;38546;48.170;11.724;2023-04-29T08:49:39;17.90;99.90
3488;DHT22;38546;48.170;11.724;2023-04-29T08:52:30;17.80;99.90
3488;DHT22;38546;48.170;11.724;2023-04-29T08:55:20;17.90;99.90
3488;DHT22;38546;48.170;11.724;2023-04-29T08:58:10;18.40;99.90
3488;DHT22;38546;48.170;11.724;2023-04-29T09:01:00;18.40;99.90
3488;DHT22;38546;48.170;11.724;2023-04-29T09:04:03;18.50;99.90
3488;DHT22;38546;48.170;11.724;2023-04-29T09:08:23;18.40;99.90
3488;DHT22;38546;48.170;11.724;2023-04-29T09:11:13;18.10;99.90
3488;DHT22;38546;48.170;11.724;2023-04-29T09:14:03;18.00;99.90
3488;DHT22;38546;48.170;11.724;2023-04-29T09:16:52;18.00;99.90
3488;DHT22;38546;48.170;11.724;2023-04-29T09:19:43;17.80;99.90
3488;DHT22;38546;48.170;11.724;2023-04-29T09:22:46;17.60;99.90
3488;DHT22;38546;48.170;11.724;2023-04-29T09:25:39;17.60;99.90
3488;DHT22;38546;48.170;11.724;2023-04-29T09:28:28;17.70;99.90
3488;DHT22;38546;48.170;11.724;2023-04-29T09:31:26;18.00;99.90
3488;DHT22;38546;48.170;11.724;2023-04-29T09:34:15;18.00;99.90
3488;DHT22;38546;48.170;11.724;2023-04-29T09:37:23;17.90;99.90
3488;DHT22;38546;48.170;11.724;2023-04-29T09:41:14;17.80;99.90
3488;DHT22;38546;48.170;11.724;2023-04-29T09:44:09;18.30;99.90
3488;DHT22;38546;48.170;11.724;2023-04-29T09:47:03;18.60;99.90
3488;DHT22;38546;48.170;11.724;2023-04-29T09:50:10;18.60;99.90
3488;DHT22;38546;48.170;11.724;2023-04-29T09:53:02;19.20;99.90
3488;DHT22;38546;48.170;11.724;2023-04-29T09:56:01;19.70;99.90
3488;DHT22;38546;48.170;11.724;2023-04-29T09:58:51;19.80;99.90
3488;DHT22;38546;48.170;11.724;2023-04-29T10:01:41;19.50;99.90
3488;DHT22;38546;48.170;11.724;2023-04-29T10:04:31;19.40;99.90
3488;DHT22;38546;48.170;11.724;2023-04-29T10:07:21;19.30;99.90
3488;DHT22;38546;48.170;11.724;2023-04-29T10:10:11;19.20;99.90
3488;DHT22;38546;48.170;11.724;2023-04-29T10:13:02;19.40;99.90
3488;DHT22;38546;48.170;11.724;2023-04-29T10:16:14;19.30;99.90
3488;DHT22;38546;48.170;11.724;2023-04-29T10:19:11;19.00;99.90
3488;DHT22;38546;48.170;11.724;2023-04-29T10:23:26;18.60;99.90
3488;DHT22;38546;48.170;11.724;2023-04-29T10:26:15;17.80;99.90
3488;DHT22;38546;48.170;11.724;2023-04-29T10:29:06;17.80;99.90
3488;DHT22;38546;48.170;11.724;2023-04-29T10:31:58;18.10;99.90
3488;DHT22;38546;48.170;11.724;2023-04-29T10:34:48;18.30;99.90
3488;DHT22;38546;48.170;11.724;2023-04-29T10:37:41;18.50;99.90
3488;DHT22;38546;48.170;11.724;2023-04-29T10:40:40;18.70;99.90
3488;DHT22;38546;48.170;11.724;2023-04-29T10:43:33;18.90;99.90
3488;DHT22;38546;48.170;11.724;2023-04-29T10:46:24;19.00;99.90
3488;DHT22;38546;48.170;11.724;2023-04-29T10:49:17;19.40;99.90
3488;DHT22;38546;48.170;11.724;2023-04-29T10:52:06;19.70;99.90
3488;DHT22;38546;48.170;11.724;2023-04-29T10:55:02;19.70;99.90
3488;DHT22;38546;48.170;11.724;2023-04-29T10:57:53;20.00;99.90
3488;DHT22;38546;48.170;11.724;2023-04-29T11:00:44;20.20;99.90
3488;DHT22;38546;48.170;11.724;2023-04-29T11:03:55;20.60;99.90
3488;DHT22;38546;48.170;11.724;2023-04-29T11:06:52;20.30;99.90
3488;DHT22;38546;48.170;11.724;2023-04-29T11:09:44;19.80;99.90
3488;DHT22;38546;48.170;11.724;2023-04-29T11:12:39;19.40;99.90
3488;DHT22;38546;48.170;11.724;2023-04-29T11:15:31;19.20;99.90
3488;DHT22;38546;48.170;11.724;2023-04-29T11:18:22;19.40;99.90
3488;DHT22;38546;48.170;11.724;2023-04-29T11:21:11;19.70;99.90
3488;DHT22;38546;48.170;11.724;2023-04-29T11:24:03;20.00;99.90
3488;DHT22;38546;48.170;11.724;2023-04-29T11:26:59;20.30;99.90
3488;DHT22;38546;48.170;11.724;2023-04-29T11:29:53;20.40;99.90
3488;DHT22;38546;48.170;11.724;2023-04-29T11:32:46;20.30;99.90
3488;DHT22;38546;48.170;11.724;2023-04-29T11:35:42;20.10;99.90
3488;DHT22;38546;48.170;11.724;2023-04-29T11:38:31;20.10;99.90
3488;DHT22;38546;48.170;11.724;2023-04-29T11:41:22;19.70;99.90
3488;DHT22;38546;48.170;11.724;2023-04-29T11:44:11;19.80;99.90
3488;DHT22;38546;48.170;11.724;2023-04-29T11:47:06;19.90;99.90
3488;DHT22;38546;48.170;11.724;2023-04-29T11:50:07;19.80;99.90
3488;DHT22;38546;48.170;11.724;2023-04-29T11:52:58;19.50;99.90
3488;DHT22;38546;48.170;11.724;2023-04-29T11:55:48;19.30;99.90
3488;DHT22;38546;48.170;11.724;2023-04-29T11:58:37;19.10;99.90
3488;DHT22;38546;48.170;11.724;2023-04-29T12:01:27;19.00;99.90
3488;DHT22;38546;48.170;11.724;2023-04-29T12:04:17;19.00;99.90
3488;DHT22;38546;48.170;11.724;2023-04-29T12:07:08;19.00;99.90
3488;DHT22;38546;48.170;11.724;2023-04-29T12:09:58;19.20;99.90
3488;DHT22;38546;48.170;11.724;2023-04-29T12:12:48;19.20;99.90
3488;DHT22;38546;48.170;11.724;2023-04-29T12:15:38;19.20;99.90
3488;DHT22;38546;48.170;11.724;2023-04-29T12:18:28;19.30;99.90
3488;DHT22;38546;48.170;11.724;2023-04-29T12:21:20;19.10;99.90
3488;DHT22;38546;48.170;11.724;2023-04-29T12:24:11;19.10;99.90
3488;DHT22;38546;48.170;11.724;2023-04-29T12:27:01;19.30;99.90
3488;DHT22;38546;48.170;11.724;2023-04-29T12:29:53;19.20;99.90
3488;DHT22;38546;48.170;11.724;2023-04-29T12:32:45;19.30;99.90
3488;DHT22;38546;48.170;11.724;2023-04-29T12:35:36;19.60;99.90
3488;DHT22;38546;48.170;11.724;2023-04-29T12:38:30;19.20;99.90
3488;DHT22;38546;48.170;11.724;2023-04-29T12:41:35;18.90;99.90
3488;DHT22;38546;48.170;11.724;2023-04-29T12:44:35;18.80;99.90
3488;DHT22;38546;48.170;11.724;2023-04-29T12:47:32;18.80;99.90
3488;DHT22;38546;48.170;11.724;2023-04-29T12:50:34;18.90;99.90
3488;DHT22;38546;48.170;11.724;2023-04-29T12:53:25;18.90;99.90
3488;DHT22;38546;48.170;11.724;2023-04-29T12:56:15;18.80;99.90
3488;DHT22;38546;48.170;11.724;2023-04-29T12:59:06;18.90;99.90
3488;DHT22;38546;48.170;11.724;2023-04-29T13:01:56;18.90;99.90
3488;DHT22;38546;48.170;11.724;2023-04-29T13:04:46;18.90;99.90
3488;DHT22;38546;48.170;11.724;2023-04-29T13:07:35;18.70;99.90
3488;DHT22;38546;48.170;11.724;2023-04-29T13:10:25;18.80;99.90
3488;DHT22;38546;48.170;11.724;2023-04-29T13:13:16;18.60;99.90
3488;DHT22;38546;48.170;11.724;2023-04-29T13:16:06;18.50;99.90
3488;DHT22;38546;48.170;11.724;2023-04-29T13:18:56;18.50;99.90
3488;DHT22;38546;48.170;11.724;2023-04-29T13:21:45;18.60;99.90
3488;DHT22;38546;48.170;11.724;2023-04-29T13:24:34;18.90;99.90
3488;DHT22;38546;48.170;11.724;2023-04-29T13:27:24;18.80;99.90
3488;DHT22;38546;48.170;11.724;2023-04-29T13:30:13;19.00;99.90
3488;DHT22;38546;48.170;11.724;2023-04-29T13:33:03;18.80;99.90
3488;DHT22;38546;48.170;11.724;2023-04-29T13:35:52;18.80;99.90
3488;DHT22;38546;48.170;11.724;2023-04-29T13:38:41;19.00;99.90
3488;DHT22;38546;48.170;11.724;2023-04-29T13:41:31;18.70;99.90
3488;DHT22;38546;48.170;11.724;2023-04-29T13:44:21;18.70;99.90
3488;DHT22;38546;48.170;11.724;2023-04-29T13:47:11;18.60;99.90
3488;DHT22;38546;48.170;11.724;2023-04-29T13:50:01;18.70;99.90
3488;DHT22;38546;48.170;11.724;2023-04-29T13:52:51;18.80;99.90
3488;DHT22;38546;48.170;11.724;2023-04-29T13:55:40;19.00;99.90
3488;DHT22;38546;48.170;11.724;2023-04-29T13:58:29;18.70;99.90
3488;DHT22;38546;48.170;11.724;2023-04-29T14:01:19;18.90;99.90
3488;DHT22;38546;48.170;11.724;2023-04-29T14:04:10;19.20;99.90
3488;DHT22;38546;48.170;11.724;2023-04-29T14:06:59;18.90;99.90
3488;DHT22;38546;48.170;11.724;2023-04-29T14:09:48;18.90;99.90
3488;DHT22;38546;48.170;11.724;2023-04-29T14:12:38;18.90;99.90
3488;DHT22;38546;48.170;11.724;2023-04-29T14:15:27;19.10;99.90
3488;DHT22;38546;48.170;11.724;2023-04-29T14:18:16;19.00;99.90
3488;DHT22;38546;48.170;11.724;2023-04-29T14:21:05;18.70;99.90
3488;DHT22;38546;48.170;11.724;2023-04-29T14:23:55;18.60;99.90
3488;DHT22;38546;48.170;11.724;2023-04-29T14:26:45;18.50;99.90
3488;DHT22;38546;48.170;11.724;2023-04-29T14:29:34;18.50;99.90
3488;DHT22;38546;48.170;11.724;2023-04-29T14:32:24;18.50;99.90
3488;DHT22;38546;48.170;11.724;2023-04-29T14:35:13;18.60;99.90
3488;DHT22;38546;48.170;11.724;2023-04-29T14:38:03;18.50;99.90
3488;DHT22;38546;48.170;11.724;2023-04-29T14:40:52;18.40;99.90
3488;DHT22;38546;48.170;11.724;2023-04-29T14:43:41;18.30;99.90
3488;DHT22;38546;48.170;11.724;2023-04-29T14:46:31;18.30;99.90
3488;DHT22;38546;48.170;11.724;2023-04-29T14:49:21;18.20;99.90
3488;DHT22;38546;48.170;11.724;2023-04-29T14:52:10;18.30;99.90
3488;DHT22;38546;48.170;11.724;2023-04-29T14:54:59;18.30;99.90
3488;DHT22;38546;48.170;11.724;2023-04-29T14:57:49;18.10;99.90
3488;DHT22;38546;48.170;11.724;2023-04-29T15:00:38;17.90;99.90
3488;DHT22;38546;48.170;11.724;2023-04-29T15:03:27;18.10;99.90
3488;DHT22;38546;48.170;11.724;2023-04-29T15:06:17;17.90;99.90
3488;DHT22;38546;48.170;11.724;2023-04-29T15:09:06;18.00;99.90
3488;DHT22;38546;48.170;11.724;2023-04-29T15:11:56;18.10;99.90
3488;DHT22;38546;48.170;11.724;2023-04-29T15:14:45;18.00;99.90
3488;DHT22;38546;48.170;11.724;2023-04-29T15:17:35;18.20;99.90
3488;DHT22;38546;48.170;11.724;2023-04-29T15:20:24;18.40;99.90
3488;DHT22;38546;48.170;11.724;2023-04-29T15:23:14;18.20;99.90
3488;DHT22;38546;48.170;11.724;2023-04-29T15:26:04;18.30;99.90
3488;DHT22;38546;48.170;11.724;2023-04-29T15:28:55;18.30;99.90
3488;DHT22;38546;48.170;11.724;2023-04-29T15:31:44;18.10;99.90
3488;DHT22;38546;48.170;11.724;2023-04-29T15:34:33;17.90;99.90
3488;DHT22;38546;48.170;11.724;2023-04-29T15:37:22;17.80;99.90
3488;DHT22;38546;48.170;11.724;2023-04-29T15:40:14;18.00;99.90
3488;DHT22;38546;48.170;11.724;2023-04-29T15:43:04;17.80;99.90
3488;DHT22;38546;48.170;11.724;2023-04-29T15:45:54;17.80;99.90
3488;DHT22;38546;48.170;11.724;2023-04-29T15:48:44;18.00;99.90
3488;DHT22;38546;48.170;11.724;2023-04-29T15:51:34;18.00;99.90
3488;DHT22;38546;48.170;11.724;2023-04-29T15:54:23;18.00;99.90
3488;DHT22;38546;48.170;11.724;2023-04-29T15:57:12;18.00;99.90
3488;DHT22;38546;48.170;11.724;2023-04-29T16:00:03;18.30;99.90
3488;DHT22;38546;48.170;11.724;2023-04-29T16:02:54;18.00;99.90
3488;DHT22;38546;48.170;11.724;2023-04-29T16:05:43;17.80;99.90
3488;DHT22;38546;48.170;11.724;2023-04-29T16:08:31;17.80;99.90
3488;DHT22;38546;48.170;11.724;2023-04-29T16:11:21;17.70;99.90
3488;DHT22;38546;48.170;11.724;2023-04-29T16:14:10;17.80;99.90
3488;DHT22;38546;48.170;11.724;2023-04-29T16:16:59;17.70;99.90
3488;DHT22;38546;48.170;11.724;2023-04-29T16:19:48;17.50;99.90
3488;DHT22;38546;48.170;11.724;2023-04-29T16:22:37;17.60;99.90
3488;DHT22;38546;48.170;11.724;2023-04-29T16:25:26;17.70;99.90
3488;DHT22;38546;48.170;11.724;2023-04-29T16:28:15;17.80;99.90
3488;DHT22;38546;48.170;11.724;2023-04-29T16:31:05;17.60;99.90
3488;DHT22;38546;48.170;11.724;2023-04-29T16:33:54;17.70;99.90
3488;DHT22;38546;48.170;11.724;2023-04-29T16:36:44;17.30;99.90
3488;DHT22;38546;48.170;11.724;2023-04-29T16:39:34;17.40;99.90
3488;DHT22;38546;48.170;11.724;2023-04-29T16:42:23;17.50;99.90
3488;DHT22;38546;48.170;11.724;2023-04-29T16:45:13;17.50;99.90
3488;DHT22;38546;48.170;11.724;2023-04-29T16:48:02;17.40;99.90
3488;DHT22;38546;48.170;11.724;2023-04-29T16:50:51;17.20;99.90
3488;DHT22;38546;48.170;11.724;2023-04-29T16:53:40;16.90;99.90
3488;DHT22;38546;48.170;11.724;2023-04-29T16:56:29;16.70;99.90
3488;DHT22;38546;48.170;11.724;2023-04-29T16:59:18;16.80;99.90
3488;DHT22;38546;48.170;11.724;2023-04-29T17:02:08;17.10;99.90
3488;DHT22;38546;48.170;11.724;2023-04-29T17:04:57;16.90;99.90
3488;DHT22;38546;48.170;11.724;2023-04-29T17:07:46;16.80;99.90
3488;DHT22;38546;48.170;11.724;2023-04-29T17:10:35;16.50;99.90
3488;DHT22;38546;48.170;11.724;2023-04-29T17:13:24;16.60;99.90
3488;DHT22;38546;48.170;11.724;2023-04-29T17:16:13;16.50;99.90
3488;DHT22;38546;48.170;11.724;2023-04-29T17:19:02;16.40;99.90
3488;DHT22;38546;48.170;11.724;2023-04-29T17:21:52;16.30;99.90
3488;DHT22;38546;48.170;11.724;2023-04-29T17:24:42;16.10;99.90
3488;DHT22;38546;48.170;11.724;2023-04-29T17:27:34;16.00;99.90
3488;DHT22;38546;48.170;11.724;2023-04-29T17:30:23;16.00;99.90
3488;DHT22;38546;48.170;11.724;2023-04-29T17:33:12;16.00;99.90
3488;DHT22;38546;48.170;11.724;2023-04-29T17:36:03;15.90;99.90
3488;DHT22;38546;48.170;11.724;2023-04-29T17:38:52;15.80;99.90
3488;DHT22;38546;48.170;11.724;2023-04-29T17:41:41;15.80;99.90
3488;DHT22;38546;48.170;11.724;2023-04-29T17:44:30;15.90;99.90
3488;DHT22;38546;48.170;11.724;2023-04-29T17:47:20;16.00;99.90
3488;DHT22;38546;48.170;11.724;2023-04-29T17:50:09;15.90;99.90
3488;DHT22;38546;48.170;11.724;2023-04-29T17:52:59;15.90;99.90
3488;DHT22;38546;48.170;11.724;2023-04-29T17:55:48;15.90;99.90
3488;DHT22;38546;48.170;11.724;2023-04-29T17:58:37;15.70;99.90
3488;DHT22;38546;48.170;11.724;2023-04-29T18:01:26;15.70;99.90
3488;DHT22;38546;48.170;11.724;2023-04-29T18:04:15;15.50;99.90
3488;DHT22;38546;48.170;11.724;2023-04-29T18:07:04;15.50;99.90
3488;DHT22;38546;48.170;11.724;2023-04-29T18:09:54;15.30;99.90
3488;DHT22;38546;48.170;11.724;2023-04-29T18:12:43;15.20;99.90